Time;durP1;ratioP1;P1;durP2;ratioP2;P2;SDS_P1;SDS_P2;PMS_P1;PMS_P2;Temp;Humidity;BMP_temperature;BMP_pressure;BME280_temperature;BME280_humidity;BME280_pressure;Samples;Min_cycle;Max_cycle;Signal;HPM_P1;HPM_P2
2023/11/23 07:17:41;;;;;;;0.50;0.50;;;1.10;99.90;;;;;;3791294;22;20782;-84
2023/11/23 07:23:04;;;;;;;4.13;0.87;;;1.00;99.90;;;;;;5471842;22;20479;-81
2023/11/23 07:28:31;;;;;;;0.40;0.40;;;1.00;99.90;;;;;;5021843;28;20455;-81
2023/11/23 07:31:01;;;;;;;0.50;0.50;;;1.50;99.90;;;;;;5021729;28;20468;-81
2023/11/23 07:33:33;;;;;;;0.93;0.83;;;1.10;99.90;;;;;;5022048;28;20502;-80
2023/11/23 07:36:06;;;;;;;0.50;0.50;;;1.20;99.90;;;;;;5021593;28;20480;-80
2023/11/23 07:38:35;;;;;;;0.80;0.63;;;2.60;99.90;;;;;;5022784;28;20459;-80
2023/11/23 07:41:04;;;;;;;0.40;0.30;;;1.20;99.90;;;;;;5021318;28;20478;-81
2023/11/23 07:43:31;;;;;;;0.83;0.50;;;1.50;99.90;;;;;;5022841;28;20515;-81
2023/11/23 07:46:05;;;;;;;0.83;0.43;;;0.90;99.90;;;;;;5022148;28;20459;-81
2023/11/23 07:48:34;;;;;;;0.40;0.40;;;1.60;99.90;;;;;;5021354;28;20787;-81
2023/11/23 07:51:02;;;;;;;1.90;1.17;;;0.90;99.90;;;;;;5022298;28;20471;-81
2023/11/23 07:53:47;;;;;;;2.93;0.53;;;1.70;99.90;;;;;;5021493;28;20452;-81
2023/11/23 07:56:17;;;;;;;1.70;1.03;;;1.80;99.90;;;;;;5023304;28;20467;-81
2023/11/23 07:59:23;;;;;;;0.70;0.60;;;1.80;99.90;;;;;;5023704;28;20491;-81
2023/11/23 08:04:48;;;;;;;0.70;0.70;;;1.80;99.90;;;;;;5021723;28;20524;-80
2023/11/23 08:07:18;;;;;;;1.33;0.73;;;2.00;99.90;;;;;;5024758;28;20447;-79
2023/11/23 08:10:20;;;;;;;0.40;0.40;;;2.30;99.90;;;;;;5023575;28;20536;-81
2023/11/23 08:13:04;;;;;;;1.93;1.23;;;1.80;99.90;;;;;;5023789;28;20451;-79
2023/11/23 08:23:00;;;;;;;1.87;1.50;;;2.30;99.90;;;;;;4945845;29;20455;-81
2023/11/23 09:19:10;;;;;;;0.33;0.30;;;3.70;99.90;;;;;;6061822;22;20436;-78
2023/11/23 09:21:38;;;;;;;2.30;1.10;;;3.70;99.90;;;;;;5048698;28;20463;-78
2023/11/23 09:52:48;;;;;;;0.40;0.40;;;4.60;99.90;;;;;;5998336;22;20481;-78
2023/11/23 09:55:35;;;;;;;0.60;0.60;;;;;;;;;;5045074;28;20467;-81
2023/11/23 09:58:04;;;;;;;6.27;1.30;;;4.80;99.90;;;;;;5042883;28;20496;-80
2023/11/23 10:00:39;;;;;;;1.33;0.30;;;5.90;99.90;;;;;;5041074;28;20536;-80
2023/11/23 10:03:08;;;;;;;1.87;0.80;;;5.00;99.90;;;;;;5041921;28;20431;-80
2023/11/23 10:05:37;;;;;;;0.70;0.50;;;7.60;99.90;;;;;;5040016;28;20447;-80
2023/11/23 10:08:05;;;;;;;0.90;0.50;;;5.50;99.90;;;;;;5041018;28;20481;-80
2023/11/23 10:28:49;;;;;;;0.60;0.50;;;6.10;99.90;;;;;;4982266;28;20506;-79
2023/11/23 11:17:51;;;;;;;0.93;0.53;;;6.40;99.90;;;;;;5022781;28;20487;-80
2023/11/23 19:18:20;;;;;;;0.40;0.40;;;6.80;99.90;;;;;;5034025;28;20486;-80
2023/11/23 19:20:49;;;;;;;0.30;0.20;;;6.80;99.90;;;;;;5036790;28;20510;-80
2023/11/23 19:23:17;;;;;;;1.13;0.40;;;6.80;99.90;;;;;;5036478;28;20965;-80
2023/11/23 19:25:46;;;;;;;0.30;0.30;;;6.80;99.90;;;;;;5036276;28;20474;-80
2023/11/23 19:28:14;;;;;;;0.50;0.50;;;6.80;99.90;;;;;;5036005;28;20447;-80
2023/11/23 19:30:42;;;;;;;0.40;0.40;;;6.80;99.90;;;;;;5035827;28;20447;-80
2023/11/23 19:33:10;;;;;;;0.50;0.50;;;6.70;99.90;;;;;;5036257;28;20842;-80
2023/11/23 19:35:38;;;;;;;1.47;0.30;;;6.80;99.90;;;;;;5035502;28;20987;-79
2023/11/23 19:38:06;;;;;;;0.30;0.30;;;6.80;99.90;;;;;;5035385;28;20485;-80
2023/11/23 19:40:33;;;;;;;0.50;0.30;;;6.80;99.90;;;;;;5035813;28;20448;-80
2023/11/23 19:43:00;;;;;;;0.40;0.30;;;6.80;99.90;;;;;;5035539;28;20443;-79
2023/11/23 19:45:28;;;;;;;0.30;0.30;;;6.80;99.90;;;;;;5035241;28;20466;-80
2023/11/23 19:47:55;;;;;;;0.60;0.50;;;6.90;99.90;;;;;;5035226;28;20931;-80
2023/11/23 19:50:23;;;;;;;0.63;0.40;;;6.80;99.90;;;;;;5036633;28;20443;-82
2023/11/23 19:52:55;;;;;;;3.93;0.50;;;6.90;99.90;;;;;;5035313;28;20437;-79
2023/11/23 19:55:22;;;;;;;0.77;0.43;;;6.90;99.90;;;;;;5034914;28;20470;-80
2023/11/23 19:57:50;;;;;;;0.40;0.40;;;6.90;99.90;;;;;;5035061;28;20877;-80
2023/11/23 20:00:17;;;;;;;0.30;0.20;;;6.90;99.90;;;;;;5035291;28;20460;-80
2023/11/23 20:02:44;;;;;;;0.37;0.33;;;7.00;99.90;;;;;;5035414;28;20451;-80
2023/11/23 20:05:11;;;;;;;3.03;0.50;;;7.10;99.90;;;;;;5034681;28;20958;-81
2023/11/23 20:07:38;;;;;;;0.40;0.40;;;7.00;99.90;;;;;;5035379;28;20957;-80
2023/11/23 20:10:08;;;;;;;0.70;0.30;;;7.00;99.90;;;;;;5034589;28;20868;-80
2023/11/23 20:12:36;;;;;;;0.40;0.30;;;7.00;99.90;;;;;;5035140;28;20431;-80
2023/11/23 20:15:02;;;;;;;0.50;0.30;;;7.00;99.90;;;;;;5034995;28;20489;-80
2023/11/23 20:17:30;;;;;;;0.40;0.40;;;7.00;99.90;;;;;;5034722;28;20483;-80
2023/11/23 20:19:56;;;;;;;0.40;0.30;;;6.90;99.90;;;;;;5035137;28;20443;-80
2023/11/23 20:22:23;;;;;;;0.40;0.40;;;6.90;99.90;;;;;;5039099;28;20462;-80
2023/11/23 20:24:50;;;;;;;1.50;0.50;;;7.00;99.90;;;;;;5039773;28;20805;-80
2023/11/23 20:27:18;;;;;;;0.40;0.40;;;7.10;99.90;;;;;;5039322;28;20458;-80
2023/11/23 20:29:45;;;;;;;0.43;0.33;;;7.10;99.90;;;;;;5039435;28;20451;-80
2023/11/23 20:32:12;;;;;;;0.80;0.77;;;7.20;99.90;;;;;;5039328;28;20497;-80
2023/11/23 20:34:39;;;;;;;0.77;0.37;;;7.20;99.90;;;;;;5039166;28;20435;-80
2023/11/23 20:37:05;;;;;;;2.37;0.50;;;7.20;99.90;;;;;;5039015;28;20474;-80
2023/11/23 20:39:32;;;;;;;2.00;0.50;;;7.20;99.90;;;;;;5038608;28;20490;-80
2023/11/23 20:41:59;;;;;;;0.50;0.50;;;7.30;99.90;;;;;;5037830;28;20935;-81
2023/11/23 20:44:27;;;;;;;0.30;0.30;;;7.30;99.90;;;;;;5038139;28;20449;-80
2023/11/23 20:46:56;;;;;;;0.50;0.50;;;7.30;99.90;;;;;;5038128;28;20463;-80
2023/11/23 20:49:23;;;;;;;0.60;0.50;;;7.30;99.90;;;;;;5038167;28;20446;-80
2023/11/23 20:51:49;;;;;;;0.40;0.30;;;7.30;99.90;;;;;;5038543;28;20451;-81
2023/11/23 20:54:16;;;;;;;0.40;0.40;;;7.30;99.90;;;;;;5038082;28;20449;-80
2023/11/23 20:56:44;;;;;;;0.40;0.30;;;7.30;99.90;;;;;;5038156;28;20476;-81
2023/11/23 20:59:11;;;;;;;0.60;0.30;;;7.40;99.90;;;;;;5038308;28;20486;-80
2023/11/23 21:01:40;;;;;;;0.70;0.57;;;7.30;99.90;;;;;;5038620;28;20946;-81
2023/11/23 21:04:07;;;;;;;0.40;0.30;;;7.30;99.90;;;;;;5038149;28;20840;-81
2023/11/23 21:06:35;;;;;;;2.70;0.47;;;7.30;99.90;;;;;;5037745;28;20474;-81
2023/11/23 21:09:03;;;;;;;0.50;0.40;;;7.30;99.90;;;;;;5037745;28;20510;-81
2023/11/23 21:11:30;;;;;;;3.37;0.50;;;7.30;99.90;;;;;;5037831;28;20958;-81
2023/11/23 21:13:56;;;;;;;0.73;0.30;;;7.20;99.90;;;;;;5038017;28;20884;-81
2023/11/23 21:16:23;;;;;;;0.40;0.30;;;7.20;99.90;;;;;;5037310;28;20478;-81
2023/11/23 21:18:51;;;;;;;2.00;0.40;;;7.10;99.90;;;;;;5037213;28;20490;-81
2023/11/23 21:21:18;;;;;;;0.67;0.60;;;7.10;99.90;;;;;;5037296;28;20447;-80
2023/11/23 21:23:44;;;;;;;2.60;0.90;;;7.20;99.90;;;;;;5042984;28;20454;-81
2023/11/23 21:26:11;;;;;;;0.30;0.30;;;7.10;99.90;;;;;;5036094;28;20481;-82
2023/11/23 21:28:38;;;;;;;0.40;0.40;;;7.10;99.90;;;;;;5034330;28;20482;-83
2023/11/23 21:31:05;;;;;;;2.70;0.67;;;7.10;99.90;;;;;;5035368;28;20489;-83
2023/11/23 21:33:32;;;;;;;1.83;0.40;;;7.10;99.90;;;;;;5038579;28;20443;-82
2023/11/23 21:36:03;;;;;;;0.50;0.40;;;7.10;99.90;;;;;;5053374;28;20462;-83
2023/11/23 21:38:30;;;;;;;0.40;0.30;;;7.10;99.90;;;;;;5036677;28;20474;-81
2023/11/23 21:40:57;;;;;;;0.60;0.47;;;7.10;99.90;;;;;;5036721;28;20426;-81
2023/11/23 21:43:24;;;;;;;1.10;0.43;;;7.00;99.90;;;;;;5036217;28;21008;-82
2023/11/23 21:45:50;;;;;;;0.40;0.40;;;7.00;99.90;;;;;;5037419;28;20491;-84
2023/11/23 21:48:17;;;;;;;0.30;0.30;;;6.90;99.90;;;;;;5040755;28;20489;-82
2023/11/23 21:50:44;;;;;;;0.30;0.30;;;7.00;99.90;;;;;;5049752;28;20434;-82
2023/11/23 21:53:13;;;;;;;0.30;0.20;;;7.70;99.90;;;;;;5036244;28;20434;-83
2023/11/23 21:55:39;;;;;;;0.40;0.40;;;7.10;99.90;;;;;;5041281;28;20470;-84
2023/11/23 21:58:06;;;;;;;0.40;0.37;;;7.10;99.90;;;;;;5051108;28;20482;-82
2023/11/23 22:00:33;;;;;;;0.30;0.30;;;7.20;99.90;;;;;;5036156;28;20812;-82
2023/11/23 22:03:00;;;;;;;0.80;0.40;;;7.20;99.90;;;;;;5034945;28;20454;-82
2023/11/23 22:05:26;;;;;;;0.50;0.50;;;7.20;99.90;;;;;;5036661;28;20471;-82
2023/11/23 22:07:53;;;;;;;0.50;0.40;;;7.20;99.90;;;;;;5035502;28;20435;-83
2023/11/23 22:10:22;;;;;;;0.40;0.40;;;7.20;99.90;;;;;;5035146;28;20450;-82
2023/11/23 22:12:48;;;;;;;0.67;0.50;;;7.20;99.90;;;;;;5036202;28;20485;-82
2023/11/23 22:15:15;;;;;;;0.30;0.30;;;7.20;99.90;;;;;;5035786;28;20478;-82
2023/11/23 22:17:42;;;;;;;0.40;0.40;;;7.20;99.90;;;;;;5035831;28;20482;-82
2023/11/23 22:20:10;;;;;;;0.97;0.47;;;7.10;99.90;;;;;;5035790;28;20493;-82
2023/11/23 22:22:38;;;;;;;0.40;0.40;;;7.10;99.90;;;;;;5035784;28;20450;-82
2023/11/23 22:25:09;;;;;;;0.30;0.30;;;7.20;99.90;;;;;;5036219;28;20491;-82
2023/11/23 22:27:39;;;;;;;0.50;0.37;;;7.10;99.90;;;;;;5036141;28;20431;-83
2023/11/23 22:30:07;;;;;;;0.50;0.30;;;7.10;99.90;;;;;;5035859;28;20447;-83
2023/11/23 22:32:34;;;;;;;0.30;0.30;;;7.10;99.90;;;;;;5035816;28;20439;-82
2023/11/23 22:35:02;;;;;;;0.30;0.30;;;7.10;99.90;;;;;;5035704;28;20798;-81
2023/11/23 22:37:30;;;;;;;0.30;0.20;;;7.00;99.90;;;;;;5036762;28;20451;-82
2023/11/23 22:39:57;;;;;;;1.57;0.30;;;7.00;99.90;;;;;;5036135;28;20821;-82
2023/11/23 22:42:24;;;;;;;0.30;0.30;;;6.90;99.90;;;;;;5035738;28;20453;-82
2023/11/23 22:44:53;;;;;;;0.77;0.30;;;6.90;99.90;;;;;;5035506;28;20450;-82
2023/11/23 22:47:21;;;;;;;0.30;0.30;;;7.00;99.90;;;;;;5035512;28;21087;-82
2023/11/23 22:49:48;;;;;;;0.47;0.33;;;6.90;99.90;;;;;;5035716;28;20467;-82
2023/11/23 22:52:15;;;;;;;0.40;0.30;;;6.90;99.90;;;;;;5035355;28;20461;-82
2023/11/23 22:54:42;;;;;;;0.30;0.30;;;6.90;99.90;;;;;;5035308;28;20439;-82
2023/11/23 22:57:09;;;;;;;0.40;0.30;;;6.90;99.90;;;;;;5035400;28;20871;-82
2023/11/23 22:59:35;;;;;;;0.40;0.40;;;7.00;99.90;;;;;;5035316;28;21023;-82
2023/11/23 23:02:04;;;;;;;0.40;0.40;;;7.00;99.90;;;;;;5036092;28;20458;-82
2023/11/23 23:04:31;;;;;;;0.40;0.40;;;6.90;99.90;;;;;;5035734;28;20450;-81
2023/11/23 23:06:58;;;;;;;0.37;0.37;;;7.00;99.90;;;;;;5035519;28;20470;-81
2023/11/23 23:09:26;;;;;;;0.30;0.30;;;7.00;99.90;;;;;;5036097;28;20450;-82
2023/11/23 23:11:55;;;;;;;0.87;0.30;;;7.00;99.90;;;;;;5035875;28;20816;-82
2023/11/23 23:14:22;;;;;;;0.30;0.30;;;7.10;99.90;;;;;;5035779;28;20493;-80
2023/11/23 23:16:49;;;;;;;0.30;0.30;;;7.00;99.90;;;;;;5035875;28;20487;-81
2023/11/23 23:19:18;;;;;;;0.30;0.30;;;7.00;99.90;;;;;;5035839;28;20493;-81
2023/11/23 23:21:45;;;;;;;0.40;0.40;;;7.00;99.90;;;;;;5036271;28;20458;-81
2023/11/23 23:24:12;;;;;;;2.60;0.40;;;7.00;99.90;;;;;;5036379;28;20443;-81
2023/11/23 23:26:40;;;;;;;0.30;0.30;;;7.00;99.90;;;;;;5036103;28;20848;-81
2023/11/23 23:29:07;;;;;;;0.30;0.30;;;7.00;99.90;;;;;;5036111;28;20447;-81
2023/11/23 23:31:33;;;;;;;0.50;0.40;;;7.00;99.90;;;;;;5043447;28;20474;-82
2023/11/23 23:34:00;;;;;;;0.40;0.37;;;7.00;99.90;;;;;;5049184;28;20497;-82
2023/11/23 23:36:28;;;;;;;0.30;0.30;;;7.10;99.90;;;;;;5036569;28;20470;-81
2023/11/23 23:38:56;;;;;;;0.37;0.30;;;7.10;99.90;;;;;;5036810;28;20844;-82
2023/11/23 23:41:22;;;;;;;1.37;0.30;;;7.10;99.90;;;;;;5034392;28;20813;-81
2023/11/23 23:43:49;;;;;;;0.40;0.30;;;7.10;99.90;;;;;;5034185;28;20447;-82
2023/11/23 23:46:16;;;;;;;4.17;0.40;;;7.20;99.90;;;;;;5034412;28;20455;-81
2023/11/23 23:48:43;;;;;;;0.40;0.40;;;7.10;99.90;;;;;;5034733;28;20443;-82
2023/11/23 23:51:10;;;;;;;0.30;0.30;;;7.10;99.90;;;;;;5034557;28;20460;-82
2023/11/23 23:53:38;;;;;;;0.30;0.30;;;7.00;99.90;;;;;;5034283;28;20482;-82
2023/11/23 23:56:06;;;;;;;0.40;0.30;;;6.90;99.90;;;;;;5033314;28;20463;-81
2023/11/23 23:58:33;;;;;;;0.30;0.30;;;6.90;99.90;;;;;;5034683;28;20476;-82
